createdAt,value
2022-09-26T00:01:44.593Z,14.10
2022-09-26T00:04:19.247Z,13.95
2022-09-26T00:06:52.189Z,14.21
2022-09-26T00:09:22.278Z,14.43
2022-09-26T00:11:51.314Z,14.43
2022-09-26T00:14:23.639Z,14.46
2022-09-26T00:16:53.677Z,14.52
2022-09-26T00:19:22.950Z,14.41
2022-09-26T00:21:52.340Z,14.36
2022-09-26T00:24:21.450Z,14.18
2022-09-26T00:26:49.942Z,14.14
2022-09-26T00:29:18.249Z,13.96
2022-09-26T00:31:49.038Z,14.14
2022-09-26T00:34:20.073Z,14.06
2022-09-26T00:36:49.820Z,14.06
2022-09-26T00:39:20.839Z,14.02
2022-09-26T00:42:28.672Z,14.02
2022-09-26T00:44:58.640Z,14.10
2022-09-26T00:47:36.288Z,14.06
2022-09-26T00:50:09.160Z,14.00
2022-09-26T00:52:41.704Z,14.06
2022-09-26T00:55:15.314Z,14.16
2022-09-26T00:57:52.212Z,14.27
2022-09-26T01:00:23.826Z,14.27
2022-09-26T01:02:54.814Z,14.26
2022-09-26T01:05:26.078Z,14.35
2022-09-26T01:07:57.388Z,14.38
2022-09-26T01:10:30.605Z,14.48
2022-09-26T01:13:02.568Z,14.27
2022-09-26T01:15:30.645Z,14.36
2022-09-26T01:17:58.762Z,14.48
2022-09-26T01:20:37.434Z,14.42
2022-09-26T01:23:43.126Z,14.42
2022-09-26T01:26:37.910Z,14.26
2022-09-26T01:29:35.279Z,14.28
2022-09-26T01:32:32.804Z,14.24
2022-09-26T01:35:12.864Z,14.27
2022-09-26T01:37:52.207Z,14.27
2022-09-26T01:40:28.971Z,14.03
2022-09-26T01:43:08.848Z,13.96
2022-09-26T01:45:47.329Z,14.13
2022-09-26T01:48:21.098Z,14.02
2022-09-26T01:50:53.507Z,13.89
2022-09-26T01:53:26.782Z,14.08
2022-09-26T01:56:04.479Z,13.82
2022-09-26T01:58:38.524Z,13.85
2022-09-26T02:01:13.430Z,14.16
2022-09-26T02:03:48.541Z,14.05
2022-09-26T02:06:24.514Z,13.99
2022-09-26T02:08:58.611Z,13.83
2022-09-26T02:11:29.594Z,13.91
2022-09-26T02:14:03.958Z,13.80
2022-09-26T02:16:38.996Z,13.52
2022-09-26T02:19:14.064Z,13.45
2022-09-26T02:26:25.377Z,13.61
2022-09-26T02:28:53.426Z,13.53
2022-09-26T02:31:26.296Z,13.51
2022-09-26T02:33:56.496Z,13.47
2022-09-26T02:36:33.634Z,13.53
2022-09-26T02:39:03.531Z,13.64
2022-09-26T02:41:50.597Z,13.68
2022-09-26T02:44:27.497Z,13.88
2022-09-26T02:47:32.343Z,13.45
2022-09-26T02:50:17.336Z,13.52
2022-09-26T02:53:00.315Z,13.52
2022-09-26T02:55:48.190Z,13.59
2022-09-26T02:58:22.940Z,13.54
2022-09-26T03:01:00.812Z,13.71
2022-09-26T03:03:37.179Z,13.71
2022-09-26T03:06:10.082Z,13.48
2022-09-26T03:08:44.222Z,13.58
2022-09-26T03:11:17.998Z,13.69
2022-09-26T03:13:50.886Z,13.79
2022-09-26T03:16:21.887Z,13.66
2022-09-26T03:18:55.593Z,13.58
2022-09-26T03:21:27.398Z,13.57
2022-09-26T03:23:58.127Z,13.64
2022-09-26T03:26:29.127Z,13.35
2022-09-26T03:29:01.527Z,13.47
2022-09-26T03:31:34.813Z,13.41
2022-09-26T03:34:08.018Z,13.39
2022-09-26T03:36:36.918Z,13.35
2022-09-26T03:39:07.025Z,13.45
2022-09-26T03:41:42.704Z,13.27
2022-09-26T03:44:27.080Z,13.32
2022-09-26T03:47:15.362Z,13.19
2022-09-26T03:49:46.297Z,13.20
2022-09-26T03:52:15.926Z,13.15
2022-09-26T03:54:47.842Z,13.24
2022-09-26T03:57:18.787Z,13.40
2022-09-26T03:59:59.217Z,13.36
2022-09-26T04:02:33.911Z,13.47
2022-09-26T04:05:18.515Z,13.34
2022-09-26T04:07:47.223Z,13.38
2022-09-26T04:10:19.327Z,13.40
2022-09-26T04:12:48.681Z,13.52
2022-09-26T04:15:18.887Z,13.55
2022-09-26T04:17:47.590Z,13.44
2022-09-26T04:20:20.461Z,13.42
2022-09-26T04:22:50.022Z,13.53
2022-09-26T04:25:19.670Z,13.43
2022-09-26T04:27:49.657Z,13.40
2022-09-26T04:30:19.200Z,13.39
2022-09-26T04:32:53.965Z,13.31
2022-09-26T04:35:38.546Z,13.27
2022-09-26T04:38:08.846Z,13.21
2022-09-26T04:40:42.664Z,13.31
2022-09-26T04:43:12.894Z,13.28
2022-09-26T04:45:43.177Z,13.26
2022-09-26T04:48:11.713Z,13.23
2022-09-26T04:51:07.142Z,13.19
2022-09-26T04:57:33.622Z,12.87
2022-09-26T05:00:02.352Z,12.94
2022-09-26T05:02:31.084Z,13.02
2022-09-26T05:05:00.434Z,12.81
2022-09-26T05:07:33.471Z,12.76
2022-09-26T05:10:02.544Z,12.97
2022-09-26T05:12:35.722Z,13.03
2022-09-26T05:15:05.566Z,12.84
2022-09-26T05:17:34.421Z,12.95
2022-09-26T05:20:03.836Z,12.97
2022-09-26T05:22:49.550Z,13.09
2022-09-26T05:25:36.404Z,12.89
2022-09-26T05:28:06.580Z,12.77
2022-09-26T05:30:35.935Z,12.82
2022-09-26T05:33:04.741Z,12.89
2022-09-26T05:35:34.786Z,12.85
2022-09-26T05:38:04.815Z,12.92
2022-09-26T05:40:52.382Z,12.96
2022-09-26T05:43:22.862Z,13.01
2022-09-26T05:45:52.466Z,12.95
2022-09-26T05:48:26.541Z,12.79
2022-09-26T05:50:55.512Z,12.81
2022-09-26T05:53:25.860Z,12.81
2022-09-26T05:55:57.434Z,12.82
2022-09-26T05:58:40.171Z,12.78
2022-09-26T06:01:17.819Z,12.80
2022-09-26T06:03:48.730Z,12.73
2022-09-26T06:06:26.014Z,12.59
2022-09-26T06:09:03.881Z,12.68
2022-09-26T06:11:49.990Z,12.72
2022-09-26T06:14:25.420Z,12.72
2022-09-26T06:16:54.912Z,12.70
2022-09-26T06:19:24.833Z,12.48
2022-09-26T06:21:57.286Z,12.56
2022-09-26T06:24:26.554Z,12.54
2022-09-26T06:26:59.435Z,12.44
2022-09-26T06:29:29.699Z,12.51
2022-09-26T06:31:58.431Z,12.75
2022-09-26T06:34:27.691Z,12.56
2022-09-26T06:41:56.434Z,12.58
2022-09-26T06:44:53.502Z,12.41
2022-09-26T06:47:25.112Z,12.49
2022-09-26T06:50:07.913Z,12.38
2022-09-26T06:52:40.419Z,12.56
2022-09-26T06:55:10.293Z,12.68
2022-09-26T06:57:40.084Z,12.67
2022-09-26T07:00:12.347Z,12.50
2022-09-26T07:03:01.490Z,12.49
2022-09-26T07:05:51.654Z,12.57
2022-09-26T07:08:19.672Z,12.63
2022-09-26T07:10:48.935Z,12.58
2022-09-26T07:13:24.294Z,12.54
2022-09-26T07:15:58.424Z,12.26
2022-09-26T07:18:38.319Z,12.38
2022-09-26T07:21:29.812Z,12.41
2022-09-26T07:24:14.444Z,12.50
2022-09-26T07:30:22.203Z,12.55
2022-09-26T07:33:03.208Z,12.55
2022-09-26T07:35:37.886Z,12.53
2022-09-26T07:38:06.098Z,12.46
2022-09-26T07:40:34.316Z,12.50
2022-09-26T07:43:19.763Z,12.58
2022-09-26T07:46:10.179Z,12.56
2022-09-26T07:48:59.394Z,12.57
2022-09-26T07:51:50.054Z,12.47
2022-09-26T07:54:22.525Z,12.49
2022-09-26T07:57:09.203Z,12.31
2022-09-26T08:00:00.240Z,12.23
2022-09-26T08:03:02.602Z,12.28
2022-09-26T08:05:35.068Z,12.48
2022-09-26T08:08:05.083Z,12.54
2022-09-26T08:10:52.032Z,12.59
2022-09-26T08:13:23.193Z,12.78
2022-09-26T08:16:09.744Z,12.72
2022-09-26T08:18:43.442Z,12.74
2022-09-26T08:21:13.035Z,12.85
2022-09-26T08:23:44.399Z,12.95
2022-09-26T08:26:33.714Z,12.63
2022-09-26T08:29:23.689Z,12.64
2022-09-26T08:31:56.056Z,12.71
2022-09-26T08:34:26.663Z,12.73
2022-09-26T08:37:21.230Z,12.69
2022-09-26T08:40:08.688Z,12.66
2022-09-26T08:43:07.235Z,12.76
2022-09-26T08:46:31.003Z,12.79
2022-09-26T08:49:44.565Z,12.76
2022-09-26T08:52:28.260Z,12.74
2022-09-26T08:55:00.266Z,12.82
2022-09-26T08:57:38.026Z,12.84
2022-09-26T09:00:20.421Z,12.86
2022-09-26T09:03:05.805Z,12.75
2022-09-26T09:05:39.470Z,12.93
2022-09-26T09:08:17.796Z,12.97
2022-09-26T09:11:10.973Z,12.98
2022-09-26T09:14:04.438Z,13.01
2022-09-26T09:17:08.599Z,13.06
2022-09-26T09:20:03.557Z,13.05
2022-09-26T09:23:19.185Z,13.11
2022-09-26T09:29:11.041Z,12.97
2022-09-26T09:31:45.439Z,13.00
2022-09-26T09:34:51.533Z,12.84
2022-09-26T09:37:48.354Z,13.06
2022-09-26T09:40:46.381Z,13.10
2022-09-26T09:43:26.513Z,12.93
2022-09-26T09:45:58.881Z,13.06
2022-09-26T09:48:54.935Z,13.16
2022-09-26T09:51:36.944Z,13.02
2022-09-26T09:54:26.378Z,13.21
2022-09-26T09:57:12.721Z,13.24
2022-09-26T10:00:11.360Z,13.36
2022-09-26T10:03:02.417Z,13.23
2022-09-26T10:05:45.484Z,13.12
2022-09-26T10:10:19.525Z,13.00
2022-09-26T10:13:32.273Z,13.02
2022-09-26T10:16:19.661Z,12.96
2022-09-26T10:22:53.617Z,13.15
2022-09-26T10:25:29.648Z,13.06
2022-09-26T10:28:00.469Z,13.05
2022-09-26T10:30:49.167Z,13.09
2022-09-26T10:33:27.043Z,12.92
2022-09-26T10:36:19.706Z,13.06
2022-09-26T10:39:12.057Z,13.04
2022-09-26T10:41:42.553Z,12.97
2022-09-26T10:44:31.321Z,13.13
2022-09-26T10:47:14.378Z,13.26
2022-09-26T10:50:11.876Z,13.09
2022-09-26T10:53:06.362Z,13.07
2022-09-26T10:55:39.970Z,13.33
2022-09-26T10:58:16.538Z,13.27
2022-09-26T11:00:49.367Z,13.31
2022-09-26T11:03:26.225Z,13.30
2022-09-26T11:06:26.650Z,13.29
2022-09-26T11:09:03.615Z,13.18
2022-09-26T11:11:52.463Z,13.15
2022-09-26T11:14:30.532Z,13.04
2022-09-26T11:17:03.564Z,12.83
2022-09-26T11:19:45.896Z,12.99
2022-09-26T11:22:26.584Z,13.28
2022-09-26T11:25:06.205Z,13.21
2022-09-26T11:27:43.906Z,13.28
2022-09-26T11:30:21.361Z,13.25
2022-09-26T11:33:14.238Z,13.16
2022-09-26T11:36:15.328Z,13.08
2022-09-26T11:38:48.777Z,13.08
2022-09-26T11:41:49.067Z,13.16
2022-09-26T11:44:58.532Z,13.20
2022-09-26T11:47:59.340Z,13.02
2022-09-26T11:50:55.845Z,13.05
2022-09-26T11:53:47.601Z,13.11
2022-09-26T12:00:27.886Z,13.21
2022-09-26T12:03:24.111Z,13.11
2022-09-26T12:05:56.638Z,13.18
2022-09-26T12:08:40.856Z,13.03
2022-09-26T12:11:24.555Z,13.15
2022-09-26T12:14:01.355Z,13.20
2022-09-26T12:16:37.356Z,13.19
2022-09-26T12:19:16.587Z,13.27
2022-09-26T12:22:16.753Z,13.20
2022-09-26T12:24:53.793Z,13.40
2022-09-26T12:27:33.783Z,13.26
2022-09-26T12:30:11.158Z,13.20
2022-09-26T12:33:25.778Z,13.49
2022-09-26T12:36:02.325Z,13.35
2022-09-26T12:38:43.117Z,13.35
2022-09-26T12:46:21.656Z,13.31
2022-09-26T12:48:58.748Z,13.31
2022-09-26T12:51:42.990Z,13.43
2022-09-26T12:54:24.744Z,13.33
2022-09-26T12:56:55.469Z,13.36
2022-09-26T12:59:41.561Z,13.49
2022-09-26T13:02:38.996Z,13.50
2022-09-26T13:05:37.634Z,13.62
2022-09-26T13:08:13.881Z,13.54
2022-09-26T13:10:55.971Z,13.46
2022-09-26T13:13:40.343Z,13.58
2022-09-26T13:16:26.508Z,13.64
2022-09-26T13:19:03.546Z,13.69
2022-09-26T13:26:27.341Z,13.83
2022-09-26T13:29:17.114Z,13.90
2022-09-26T13:31:55.436Z,13.96
2022-09-26T13:34:32.543Z,13.88
2022-09-26T13:37:01.595Z,13.71
2022-09-26T13:39:39.929Z,13.82
2022-09-26T13:42:17.315Z,14.00
2022-09-26T13:44:59.318Z,14.09
2022-09-26T13:47:40.217Z,14.13
2022-09-26T13:50:23.301Z,14.02
2022-09-26T13:53:06.721Z,14.04
2022-09-26T13:55:36.624Z,14.11
2022-09-26T13:58:20.067Z,14.24
2022-09-26T14:00:54.649Z,14.41
2022-09-26T14:03:40.188Z,14.38
2022-09-26T14:06:29.293Z,14.54
2022-09-26T14:09:29.713Z,14.48
2022-09-26T14:12:33.520Z,14.22
2022-09-26T14:15:18.380Z,14.26
2022-09-26T14:18:22.159Z,14.18
2022-09-26T14:21:19.772Z,14.26
2022-09-26T14:24:11.852Z,14.23
2022-09-26T14:26:43.438Z,14.44
2022-09-26T14:29:33.571Z,14.56
2022-09-26T14:32:06.250Z,14.59
2022-09-26T14:34:41.841Z,14.48
2022-09-26T14:37:28.494Z,14.51
2022-09-26T14:40:17.838Z,14.29
2022-09-26T14:42:54.372Z,14.53
2022-09-26T14:45:27.084Z,14.60
2022-09-26T14:48:07.945Z,14.83
2022-09-26T14:50:44.924Z,14.88
2022-09-26T14:53:22.727Z,14.84
2022-09-26T14:56:00.179Z,14.76
2022-09-26T14:58:35.454Z,14.77
2022-09-26T15:01:06.798Z,14.77
2022-09-26T15:03:35.642Z,14.81
2022-09-26T15:06:05.360Z,14.87
2022-09-26T15:08:39.444Z,14.79
2022-09-26T15:11:09.307Z,14.77
2022-09-26T15:13:40.485Z,14.84
2022-09-26T15:16:22.698Z,14.77
2022-09-26T15:18:55.456Z,14.84
2022-09-26T15:21:32.965Z,15.02
2022-09-26T15:24:04.601Z,14.96
2022-09-26T15:26:36.971Z,14.84
2022-09-26T15:29:08.993Z,14.82
2022-09-26T15:31:42.412Z,14.95
2022-09-26T15:34:17.641Z,14.96
2022-09-26T15:36:49.798Z,14.82
2022-09-26T15:39:37.730Z,14.99
2022-09-26T15:42:41.961Z,14.95
2022-09-26T15:45:29.961Z,15.05
2022-09-26T15:47:59.874Z,15.04
2022-09-26T15:50:32.235Z,15.11
2022-09-26T15:53:08.132Z,15.02
2022-09-26T15:55:43.461Z,15.02
2022-09-26T15:58:18.168Z,14.79
2022-09-26T16:00:49.565Z,14.77
2022-09-26T16:03:40.433Z,14.87
2022-09-26T16:06:28.430Z,14.79
2022-09-26T16:09:02.379Z,14.67
2022-09-26T16:11:30.818Z,14.57
2022-09-26T16:14:01.233Z,14.69
2022-09-26T16:16:33.065Z,14.77
2022-09-26T16:19:05.328Z,14.74
2022-09-26T16:21:36.535Z,14.81
2022-09-26T16:24:28.699Z,14.90
2022-09-26T16:26:59.579Z,14.85
2022-09-26T16:29:34.699Z,14.87
2022-09-26T16:32:04.233Z,14.95
2022-09-26T16:34:35.616Z,15.01
2022-09-26T16:42:16.782Z,14.94
2022-09-26T16:44:55.386Z,14.96
2022-09-26T16:47:41.662Z,15.03
2022-09-26T16:50:31.675Z,14.84
2022-09-26T16:53:04.832Z,14.78
2022-09-26T16:55:37.504Z,14.83
2022-09-26T16:58:06.625Z,14.92
2022-09-26T17:00:56.316Z,15.00
2022-09-26T17:03:26.328Z,14.86
2022-09-26T17:05:56.931Z,14.89
2022-09-26T17:08:27.695Z,14.97
2022-09-26T17:11:00.208Z,14.90
2022-09-26T17:13:31.015Z,14.98
2022-09-26T17:16:03.703Z,14.93
2022-09-26T17:18:34.071Z,15.00
2022-09-26T17:21:02.853Z,14.90
2022-09-26T17:23:42.296Z,14.53
2022-09-26T17:26:19.907Z,14.78
2022-09-26T17:28:48.535Z,14.72
2022-09-26T17:31:20.775Z,14.73
2022-09-26T17:33:52.442Z,14.75
2022-09-26T17:36:24.368Z,14.79
2022-09-26T17:38:53.686Z,14.79
2022-09-26T17:41:23.219Z,14.78
2022-09-26T17:43:58.775Z,14.81
2022-09-26T17:46:31.076Z,14.82
2022-09-26T17:49:05.049Z,14.74
2022-09-26T17:51:33.167Z,14.88
2022-09-26T17:54:01.365Z,14.69
2022-09-26T17:56:31.664Z,14.73
2022-09-26T17:59:01.250Z,14.78
2022-09-26T18:01:34.359Z,14.80
2022-09-26T18:04:06.385Z,14.80
2022-09-26T18:06:37.078Z,14.64
2022-09-26T18:09:10.131Z,14.59
2022-09-26T18:11:38.942Z,14.64
2022-09-26T18:14:08.246Z,14.66
2022-09-26T18:16:38.421Z,14.62
2022-09-26T18:19:07.832Z,14.68
2022-09-26T18:21:36.483Z,14.68
2022-09-26T18:24:06.834Z,14.63
2022-09-26T18:26:42.309Z,14.72
2022-09-26T18:29:14.690Z,14.74
2022-09-26T18:31:47.394Z,14.76
2022-09-26T18:34:18.916Z,14.82
2022-09-26T18:36:48.866Z,14.76
2022-09-26T18:39:18.495Z,14.82
2022-09-26T18:41:49.489Z,14.84
2022-09-26T18:44:20.360Z,14.80
2022-09-26T18:46:49.980Z,14.84
2022-09-26T18:49:19.785Z,14.87
2022-09-26T18:51:49.000Z,14.89
2022-09-26T18:54:18.606Z,14.83
2022-09-26T18:57:19.378Z,14.83
2022-09-26T18:59:49.905Z,14.81
2022-09-26T19:02:23.733Z,14.75
2022-09-26T19:04:52.906Z,14.79
2022-09-26T19:07:22.508Z,14.83
2022-09-26T19:09:51.530Z,14.84
2022-09-26T19:12:20.337Z,14.72
2022-09-26T19:14:48.743Z,14.71
2022-09-26T19:17:17.822Z,14.67
2022-09-26T19:19:47.749Z,14.68
2022-09-26T19:22:18.385Z,14.71
2022-09-26T19:24:49.991Z,14.75
2022-09-26T19:27:22.669Z,14.79
2022-09-26T19:29:59.954Z,14.79
2022-09-26T19:32:33.278Z,14.69
2022-09-26T19:35:06.615Z,14.71
2022-09-26T19:37:34.780Z,14.69
2022-09-26T19:40:02.972Z,14.55
2022-09-26T19:42:32.793Z,14.52
2022-09-26T19:45:01.849Z,14.53
2022-09-26T19:47:33.422Z,14.47
2022-09-26T19:50:03.986Z,14.51
2022-09-26T19:52:33.680Z,14.57
2022-09-26T19:55:02.678Z,14.53
2022-09-26T19:57:31.062Z,14.57
2022-09-26T19:59:59.419Z,14.56
2022-09-26T20:02:33.814Z,14.61
2022-09-26T20:05:14.693Z,14.66
2022-09-26T20:07:42.920Z,14.67
2022-09-26T20:10:17.905Z,14.67
2022-09-26T20:12:48.376Z,14.69
2022-09-26T20:15:20.185Z,14.70
2022-09-26T20:17:49.418Z,14.75
2022-09-26T20:20:24.582Z,14.74
2022-09-26T20:22:55.371Z,14.79
2022-09-26T20:25:27.365Z,14.73
2022-09-26T20:27:56.219Z,14.65
2022-09-26T20:30:43.766Z,14.54
2022-09-26T20:33:13.288Z,14.42
2022-09-26T20:35:45.556Z,14.34
2022-09-26T20:38:19.926Z,14.42
2022-09-26T20:40:49.133Z,14.40
2022-09-26T20:43:25.821Z,14.41
2022-09-26T20:45:54.843Z,14.39
2022-09-26T20:48:25.780Z,14.36
2022-09-26T20:50:55.764Z,14.32
2022-09-26T20:53:26.396Z,14.39
2022-09-26T20:55:56.207Z,14.43
2022-09-26T20:58:25.057Z,14.50
2022-09-26T21:00:53.891Z,14.53
2022-09-26T21:03:26.206Z,14.53
2022-09-26T21:05:58.043Z,14.47
2022-09-26T21:08:30.514Z,14.48
2022-09-26T21:10:59.665Z,14.47
2022-09-26T21:13:30.062Z,14.37
2022-09-26T21:15:59.292Z,14.46
2022-09-26T21:18:31.818Z,14.25
2022-09-26T21:21:06.404Z,14.35
2022-09-26T21:23:55.268Z,14.26
2022-09-26T21:26:25.617Z,14.30
2022-09-26T21:28:55.069Z,14.10
2022-09-26T21:31:28.448Z,14.04
2022-09-26T21:34:01.871Z,13.89
2022-09-26T21:36:35.306Z,13.90
2022-09-26T21:39:03.908Z,13.93
2022-09-26T21:41:32.138Z,13.97
2022-09-26T21:44:03.727Z,13.97
2022-09-26T21:46:33.557Z,13.95
2022-09-26T21:49:02.385Z,14.02
2022-09-26T21:51:32.721Z,14.07
2022-09-26T21:54:05.532Z,14.06
2022-09-26T21:56:39.990Z,14.07
2022-09-26T21:59:08.767Z,14.10
2022-09-26T22:01:38.621Z,14.14
2022-09-26T22:04:06.857Z,14.24
2022-09-26T22:06:36.068Z,14.33
2022-09-26T22:09:04.763Z,14.37
2022-09-26T22:11:34.048Z,14.28
2022-09-26T22:14:02.665Z,14.34
2022-09-26T22:16:31.633Z,14.33
2022-09-26T22:19:00.388Z,14.23
2022-09-26T22:21:30.904Z,14.05
2022-09-26T22:24:02.918Z,13.94
2022-09-26T22:26:31.327Z,13.96
2022-09-26T22:28:59.745Z,13.95
2022-09-26T22:31:29.394Z,14.02
2022-09-26T22:34:01.025Z,14.08
2022-09-26T22:36:30.943Z,14.11
2022-09-26T22:39:01.629Z,14.07
2022-09-26T22:46:14.948Z,14.05
2022-09-26T22:48:45.444Z,13.92
2022-09-26T22:51:14.857Z,14.00
2022-09-26T22:53:44.834Z,13.93
2022-09-26T22:56:15.745Z,14.01
2022-09-26T22:58:46.613Z,14.06
2022-09-26T23:01:18.722Z,14.03
2022-09-26T23:03:47.136Z,13.98
2022-09-26T23:06:15.265Z,14.01
2022-09-26T23:12:47.943Z,14.12
2022-09-26T23:15:15.937Z,14.18
2022-09-26T23:17:43.905Z,14.25
2022-09-26T23:20:11.905Z,14.33
2022-09-26T23:22:40.117Z,14.31
2022-09-26T23:25:09.495Z,14.32
2022-09-26T23:27:37.697Z,14.31
2022-09-26T23:30:08.764Z,14.20
2022-09-26T23:32:36.866Z,14.17
2022-09-26T23:35:05.758Z,14.20
2022-09-26T23:37:33.721Z,14.15
2022-09-26T23:40:02.052Z,14.16
2022-09-26T23:42:30.642Z,14.21
2022-09-26T23:44:58.877Z,14.22
2022-09-26T23:47:28.312Z,14.21
2022-09-26T23:49:56.374Z,14.20
2022-09-26T23:52:24.496Z,14.19
2022-09-26T23:54:52.792Z,14.14
2022-09-26T23:57:21.214Z,14.08
2022-09-26T23:59:49.277Z,14.01
